createdAt,value
2023-03-05T00:01:35.348Z,101058.31
2023-03-05T00:04:03.762Z,101052.91
2023-03-05T00:06:31.996Z,101056.25
2023-03-05T00:08:59.029Z,101058.41
2023-03-05T00:11:30.079Z,101055.19
2023-03-05T00:13:58.414Z,101043.22
2023-03-05T00:16:26.904Z,101048.44
2023-03-05T00:18:55.518Z,101050.09
2023-03-05T00:21:26.217Z,101042.66
2023-03-05T00:23:53.575Z,101044.53
2023-03-05T00:26:23.222Z,101035.41
2023-03-05T00:28:51.765Z,101033.72
2023-03-05T00:31:21.802Z,101032.91
2023-03-05T00:33:55.444Z,101031.03
2023-03-05T00:36:22.274Z,101029.19
2023-03-05T00:38:48.970Z,101026.47
2023-03-05T00:41:15.568Z,101018.56
2023-03-05T00:43:42.280Z,101014.00
2023-03-05T00:46:08.940Z,101015.69
2023-03-05T00:48:35.619Z,101006.75
2023-03-05T00:51:02.666Z,101009.44
2023-03-05T00:53:29.365Z,101003.22
2023-03-05T00:55:55.895Z,101004.03
2023-03-05T00:58:22.687Z,100992.59
2023-03-05T01:00:50.798Z,100996.31
2023-03-05T01:03:18.586Z,100995.81
2023-03-05T01:05:45.266Z,100988.69
2023-03-05T01:08:11.900Z,100989.72
2023-03-05T01:10:38.939Z,100985.00
2023-03-05T01:13:05.515Z,100982.47
2023-03-05T01:15:32.200Z,100985.00
2023-03-05T01:17:58.764Z,100979.94
2023-03-05T01:20:25.394Z,100982.63
2023-03-05T01:22:52.057Z,100975.56
2023-03-05T01:25:19.114Z,100975.56
2023-03-05T01:27:45.930Z,100969.97
2023-03-05T01:30:14.417Z,100972.69
2023-03-05T01:32:41.268Z,100966.44
2023-03-05T01:35:08.653Z,100961.88
2023-03-05T01:37:35.210Z,100953.97
2023-03-05T01:40:01.808Z,100954.63
2023-03-05T01:42:28.379Z,100941.13
2023-03-05T01:45:02.811Z,100938.44
2023-03-05T01:47:29.745Z,100938.44
2023-03-05T01:49:56.838Z,100934.06
2023-03-05T01:52:25.340Z,100934.91
2023-03-05T01:55:01.106Z,100927.81
2023-03-05T01:57:37.640Z,100929.69
2023-03-05T02:00:13.460Z,100932.38
2023-03-05T02:02:41.850Z,100936.09
2023-03-05T02:05:16.366Z,100926.16
2023-03-05T02:07:45.154Z,100918.06
2023-03-05T02:10:30.832Z,100912.66
2023-03-05T02:13:00.880Z,100926.16
2023-03-05T02:15:28.302Z,100918.91
2023-03-05T02:17:54.939Z,100914.34
2023-03-05T02:20:28.224Z,100911.44
2023-03-05T02:22:54.781Z,100907.06
2023-03-05T02:25:27.636Z,100914.16
2023-03-05T02:28:12.115Z,100902.53
2023-03-05T02:30:38.672Z,100905.41
2023-03-05T02:33:05.510Z,100907.06
2023-03-05T02:35:32.257Z,100900.84
2023-03-05T02:37:58.945Z,100904.38
2023-03-05T02:40:25.665Z,100895.44
2023-03-05T02:42:52.246Z,100900.66
2023-03-05T02:45:19.063Z,100892.75
2023-03-05T02:47:45.772Z,100894.78
2023-03-05T02:50:12.872Z,100883.63
2023-03-05T02:52:40.354Z,100889.03
2023-03-05T02:55:07.480Z,100891.91
2023-03-05T02:57:34.013Z,100885.50
2023-03-05T03:00:00.780Z,100895.25
2023-03-05T03:02:27.360Z,100891.72
2023-03-05T03:04:53.971Z,100885.31
2023-03-05T03:07:20.545Z,100892.56
2023-03-05T03:09:47.133Z,100886.31
2023-03-05T03:12:13.691Z,100888.00
2023-03-05T03:14:42.600Z,100885.66
2023-03-05T03:17:11.764Z,100885.03
2023-03-05T03:19:38.473Z,100882.50
2023-03-05T03:22:06.351Z,100879.25
2023-03-05T03:24:33.636Z,100872.56
2023-03-05T03:27:00.904Z,100877.09
2023-03-05T03:29:27.820Z,100872.91
2023-03-05T03:31:54.339Z,100870.22
2023-03-05T03:34:21.333Z,100875.75
2023-03-05T03:36:49.412Z,100862.97
2023-03-05T03:39:16.439Z,100852.69
2023-03-05T03:41:48.438Z,100858.09
2023-03-05T03:44:17.945Z,100861.81
2023-03-05T03:46:48.799Z,100855.56
2023-03-05T03:49:22.701Z,100846.81
2023-03-05T03:51:50.817Z,100850.22
2023-03-05T03:54:18.408Z,100848.25
2023-03-05T03:56:45.188Z,100838.13
2023-03-05T03:59:12.378Z,100840.81
2023-03-05T04:01:39.357Z,100831.44
2023-03-05T04:04:06.556Z,100827.69
2023-03-05T04:06:33.657Z,100823.34
2023-03-05T04:09:00.629Z,100820.25
2023-03-05T04:11:27.181Z,100829.38
2023-03-05T04:13:53.766Z,100823.97
2023-03-05T04:16:20.526Z,100812.53
2023-03-05T04:18:47.426Z,100806.97
2023-03-05T04:21:14.082Z,100813.38
2023-03-05T04:23:40.784Z,100812.53
2023-03-05T04:26:07.594Z,100816.53
2023-03-05T04:28:34.149Z,100817.94
2023-03-05T04:31:00.769Z,100813.56
2023-03-05T04:33:27.308Z,100811.03
2023-03-05T04:35:53.862Z,100811.19
2023-03-05T04:38:20.447Z,100804.13
2023-03-05T04:40:47.443Z,100813.25
2023-03-05T04:43:14.101Z,100807.00
2023-03-05T04:45:42.862Z,100801.63
2023-03-05T04:48:10.723Z,100796.41
2023-03-05T04:50:37.865Z,100806.06
2023-03-05T04:53:04.768Z,100797.78
2023-03-05T04:55:31.608Z,100795.44
2023-03-05T04:57:58.572Z,100791.38
2023-03-05T05:00:25.507Z,100798.81
2023-03-05T05:02:53.117Z,100789.03
2023-03-05T05:05:26.689Z,100794.06
2023-03-05T05:07:57.804Z,100794.41
2023-03-05T05:10:26.234Z,100791.88
2023-03-05T05:12:53.342Z,100795.94
2023-03-05T05:15:20.270Z,100795.78
2023-03-05T05:17:47.477Z,100795.44
2023-03-05T05:20:15.506Z,100789.16
2023-03-05T05:22:42.563Z,100783.50
2023-03-05T05:25:10.480Z,100798.47
2023-03-05T05:27:39.233Z,100787.69
2023-03-05T05:30:06.504Z,100781.09
2023-03-05T05:32:33.361Z,100788.34
2023-03-05T05:35:00.039Z,100783.78
2023-03-05T05:37:27.444Z,100781.81
2023-03-05T05:39:54.188Z,100785.34
2023-03-05T05:42:23.496Z,100789.34
2023-03-05T05:44:50.080Z,100790.19
2023-03-05T05:47:18.079Z,100783.63
2023-03-05T05:49:44.644Z,100790.38
2023-03-05T05:52:11.354Z,100799.47
2023-03-05T05:54:38.526Z,100788.69
2023-03-05T05:57:05.321Z,100790.53
2023-03-05T05:59:32.079Z,100788.03
2023-03-05T06:01:59.425Z,100792.69
2023-03-05T06:04:26.088Z,100793.72
2023-03-05T06:06:52.654Z,100792.03
2023-03-05T06:09:19.226Z,100791.56
2023-03-05T06:11:45.898Z,100797.44
2023-03-05T06:14:13.084Z,100797.44
2023-03-05T06:16:40.154Z,100801.16
2023-03-05T06:19:06.982Z,100795.75
2023-03-05T06:21:33.947Z,100790.72
2023-03-05T06:24:00.735Z,100788.50
2023-03-05T06:26:27.356Z,100795.56
2023-03-05T06:28:54.806Z,100795.56
2023-03-05T06:31:25.576Z,100801.34
2023-03-05T06:33:54.440Z,100809.06
2023-03-05T06:36:22.723Z,100802.16
2023-03-05T06:38:51.550Z,100799.28
2023-03-05T06:41:22.216Z,100794.25
2023-03-05T06:43:49.305Z,100792.88
2023-03-05T06:46:20.304Z,100795.75
2023-03-05T06:48:47.949Z,100798.75
2023-03-05T06:51:35.644Z,100804.25
2023-03-05T06:54:07.850Z,100803.44
2023-03-05T06:56:38.556Z,100798.03
2023-03-05T06:59:06.030Z,100790.47
2023-03-05T07:01:32.929Z,100790.66
2023-03-05T07:04:00.433Z,100792.63
2023-03-05T07:06:30.354Z,100787.91
2023-03-05T07:08:57.917Z,100784.47
2023-03-05T07:11:25.005Z,100781.59
2023-03-05T07:13:51.876Z,100776.69
2023-03-05T07:16:21.579Z,100781.53
2023-03-05T07:18:49.166Z,100781.72
2023-03-05T07:21:19.771Z,100776.66
2023-03-05T07:23:46.522Z,100783.91
2023-03-05T07:26:13.850Z,100788.09
2023-03-05T07:28:40.606Z,100783.66
2023-03-05T07:31:11.934Z,100790.91
2023-03-05T07:33:38.533Z,100787.00
2023-03-05T07:36:08.806Z,100785.13
2023-03-05T07:38:35.656Z,100782.81
2023-03-05T07:41:07.124Z,100784.47
2023-03-05T07:43:33.961Z,100787.19
2023-03-05T07:46:04.855Z,100789.03
2023-03-05T07:48:31.609Z,100784.19
2023-03-05T07:51:03.118Z,100794.78
2023-03-05T07:53:29.713Z,100781.78
2023-03-05T07:55:56.310Z,100779.44
2023-03-05T07:58:22.893Z,100778.91
2023-03-05T08:00:49.657Z,100783.09
2023-03-05T08:03:16.246Z,100778.53
2023-03-05T08:05:43.103Z,100771.06
2023-03-05T08:08:09.824Z,100775.81
2023-03-05T08:10:37.425Z,100777.69
2023-03-05T08:13:04.424Z,100780.84
2023-03-05T08:15:31.705Z,100776.47
2023-03-05T08:17:58.722Z,100768.03
2023-03-05T08:20:25.450Z,100771.56
2023-03-05T08:22:52.157Z,100766.50
2023-03-05T08:25:18.823Z,100753.56
2023-03-05T08:27:47.311Z,100770.63
2023-03-05T08:30:17.980Z,100756.84
2023-03-05T08:32:44.853Z,100764.25
2023-03-05T08:35:11.703Z,100767.97
2023-03-05T08:37:38.341Z,100765.41
2023-03-05T08:40:05.391Z,100762.31
2023-03-05T08:42:31.962Z,100759.63
2023-03-05T08:44:58.590Z,100764.38
2023-03-05T08:47:26.693Z,100764.66
2023-03-05T08:49:57.243Z,100766.44
2023-03-05T08:52:24.310Z,100758.41
2023-03-05T08:54:50.845Z,100761.22
2023-03-05T08:57:17.516Z,100762.91
2023-03-05T08:59:44.142Z,100755.06
2023-03-05T09:02:12.868Z,100743.88
2023-03-05T09:04:39.775Z,100751.63
2023-03-05T09:07:06.688Z,100740.34
2023-03-05T09:09:34.017Z,100746.44
2023-03-05T09:12:01.728Z,100741.09
2023-03-05T09:14:28.735Z,100744.47
2023-03-05T09:16:56.177Z,100729.09
2023-03-05T09:19:22.907Z,100731.75
2023-03-05T09:21:49.459Z,100731.94
2023-03-05T09:24:16.043Z,100733.38
2023-03-05T09:26:42.671Z,100731.53
2023-03-05T09:29:10.011Z,100725.19
2023-03-05T09:31:37.145Z,100724.47
2023-03-05T09:34:04.958Z,100727.06
2023-03-05T09:36:32.012Z,100712.91
2023-03-05T09:38:59.012Z,100713.72
2023-03-05T09:42:10.444Z,100708.94
2023-03-05T09:44:42.695Z,100716.06
2023-03-05T09:47:13.300Z,100709.63
2023-03-05T09:49:57.977Z,100714.88
2023-03-05T09:52:33.274Z,100714.97
2023-03-05T09:54:59.904Z,100707.47
2023-03-05T09:57:52.101Z,100706.34
2023-03-05T10:00:46.042Z,100704.63
2023-03-05T10:03:34.816Z,100707.63
2023-03-05T10:06:21.796Z,100706.47
2023-03-05T10:09:09.787Z,100709.09
2023-03-05T10:11:55.258Z,100705.00
2023-03-05T10:14:38.396Z,100698.31
2023-03-05T10:17:45.274Z,100697.81
2023-03-05T10:20:26.841Z,100697.28
2023-03-05T10:23:25.777Z,100695.75
2023-03-05T10:26:05.845Z,100705.94
2023-03-05T10:28:43.189Z,100684.16
2023-03-05T10:31:30.684Z,100685.06
2023-03-05T10:34:03.413Z,100677.72
2023-03-05T10:36:58.596Z,100677.53
2023-03-05T10:39:40.383Z,100678.84
2023-03-05T10:42:34.100Z,100673.16
2023-03-05T10:45:13.926Z,100672.88
2023-03-05T10:47:55.514Z,100664.31
2023-03-05T10:50:32.221Z,100660.41
2023-03-05T10:53:21.813Z,100656.13
2023-03-05T10:55:50.679Z,100650.63
2023-03-05T10:58:17.739Z,100658.34
2023-03-05T11:01:04.644Z,100649.59
2023-03-05T11:03:53.174Z,100650.09
2023-03-05T11:06:32.590Z,100650.44
2023-03-05T11:09:20.920Z,100646.69
2023-03-05T11:12:16.751Z,100638.31
2023-03-05T11:15:14.163Z,100645.78
2023-03-05T11:17:44.615Z,100639.34
2023-03-05T11:20:26.507Z,100638.06
2023-03-05T11:23:14.122Z,100630.53
2023-03-05T11:25:55.674Z,100625.88
2023-03-05T11:28:33.290Z,100618.31
2023-03-05T11:31:15.488Z,100624.00
2023-03-05T11:33:59.899Z,100611.03
2023-03-05T11:36:28.548Z,100609.31
2023-03-05T11:38:59.860Z,100610.72
2023-03-05T11:41:31.399Z,100600.19
2023-03-05T11:44:03.707Z,100602.91
2023-03-05T11:46:38.557Z,100598.78
2023-03-05T11:49:07.356Z,100591.69
2023-03-05T11:52:20.145Z,100591.50
2023-03-05T11:55:07.208Z,100594.00
2023-03-05T11:57:46.192Z,100599.03
2023-03-05T12:00:16.823Z,100585.19
2023-03-05T12:02:43.917Z,100584.41
2023-03-05T12:05:17.344Z,100591.97
2023-03-05T12:07:48.788Z,100601.28
2023-03-05T12:10:22.209Z,100588.91
2023-03-05T12:13:15.181Z,100593.09
2023-03-05T12:15:41.884Z,100594.03
2023-03-05T12:18:33.186Z,100592.63
2023-03-05T12:21:23.894Z,100586.31
2023-03-05T12:23:53.457Z,100576.44
2023-03-05T12:26:59.540Z,100572.19
2023-03-05T12:29:44.666Z,100570.69
2023-03-05T12:32:25.467Z,100571.00
2023-03-05T12:34:59.603Z,100582.16
2023-03-05T12:37:26.128Z,100587.06
2023-03-05T12:40:00.939Z,100576.66
2023-03-05T12:42:30.575Z,100573.31
2023-03-05T12:45:16.155Z,100559.38
2023-03-05T12:47:47.525Z,100565.25
2023-03-05T12:50:29.317Z,100557.09
2023-03-05T12:53:14.977Z,100557.78
2023-03-05T12:55:47.541Z,100556.69
2023-03-05T12:58:49.455Z,100556.44
2023-03-05T13:01:42.288Z,100549.09
2023-03-05T13:04:17.230Z,100555.53
2023-03-05T13:06:43.764Z,100547.63
2023-03-05T13:09:24.409Z,100551.34
2023-03-05T13:11:54.112Z,100537.22
2023-03-05T13:14:32.740Z,100543.47
2023-03-05T13:16:59.766Z,100547.03
2023-03-05T13:19:27.510Z,100545.03
2023-03-05T13:22:02.277Z,100538.16
2023-03-05T13:24:29.972Z,100541.38
2023-03-05T13:26:57.299Z,100532.63
2023-03-05T13:29:28.238Z,100536.19
2023-03-05T13:31:58.626Z,100540.16
2023-03-05T13:34:47.067Z,100538.28
2023-03-05T13:37:24.053Z,100531.91
2023-03-05T13:40:01.936Z,100537.78
2023-03-05T13:42:36.815Z,100530.13
2023-03-05T13:45:32.192Z,100520.25
2023-03-05T13:48:01.774Z,100526.69
2023-03-05T13:50:34.315Z,100533.03
2023-03-05T13:53:29.798Z,100533.84
2023-03-05T13:55:58.985Z,100533.50
2023-03-05T13:58:48.122Z,100542.22
2023-03-05T14:01:36.919Z,100547.28
2023-03-05T14:04:08.316Z,100550.25
2023-03-05T14:07:01.216Z,100551.53
2023-03-05T14:09:49.982Z,100543.06
2023-03-05T14:12:38.360Z,100539.44
2023-03-05T14:15:26.048Z,100528.91
2023-03-05T14:18:07.202Z,100529.47
2023-03-05T14:20:33.831Z,100522.47
2023-03-05T14:23:02.154Z,100509.81
2023-03-05T14:25:39.616Z,100518.88
2023-03-05T14:28:18.220Z,100505.34
2023-03-05T14:30:49.173Z,100508.53
2023-03-05T14:33:31.832Z,100504.13
2023-03-05T14:36:00.653Z,100496.22
2023-03-05T14:38:31.355Z,100502.00
2023-03-05T14:40:58.276Z,100499.50
2023-03-05T14:43:24.803Z,100494.84
2023-03-05T14:45:51.435Z,100491.16
2023-03-05T14:48:21.063Z,100492.16
2023-03-05T14:50:53.697Z,100496.72
2023-03-05T14:53:28.023Z,100495.00
2023-03-05T14:55:56.821Z,100495.63
2023-03-05T14:58:27.550Z,100496.66
2023-03-05T15:00:55.591Z,100495.00
2023-03-05T15:03:22.727Z,100494.50
2023-03-05T15:05:52.440Z,100490.63
2023-03-05T15:08:27.667Z,100488.94
2023-03-05T15:10:54.839Z,100487.91
2023-03-05T15:13:22.002Z,100493.13
2023-03-05T15:15:50.461Z,100485.28
2023-03-05T15:18:19.321Z,100478.41
2023-03-05T15:20:48.819Z,100484.44
2023-03-05T15:23:15.883Z,100485.56
2023-03-05T15:25:42.649Z,100475.41
2023-03-05T15:28:09.386Z,100481.19
2023-03-05T15:30:39.135Z,100473.25
2023-03-05T15:33:08.643Z,100472.28
2023-03-05T15:35:36.250Z,100470.41
2023-03-05T15:38:02.881Z,100464.34
2023-03-05T15:40:29.648Z,100470.56
2023-03-05T15:42:57.736Z,100475.31
2023-03-05T15:45:24.665Z,100471.53
2023-03-05T15:47:52.694Z,100470.22
2023-03-05T15:50:20.810Z,100466.44
2023-03-05T15:52:48.012Z,100476.59
2023-03-05T15:55:14.665Z,100470.56
2023-03-05T15:57:44.202Z,100474.44
2023-03-05T16:00:12.376Z,100472.31
2023-03-05T16:02:38.961Z,100473.53
2023-03-05T16:05:06.227Z,100470.53
2023-03-05T16:07:36.527Z,100468.69
2023-03-05T16:10:04.278Z,100468.03
2023-03-05T16:12:40.857Z,100474.28
2023-03-05T16:15:12.695Z,100463.69
2023-03-05T16:17:43.557Z,100469.25
2023-03-05T16:20:12.568Z,100469.72
2023-03-05T16:22:39.162Z,100474.38
2023-03-05T16:25:06.360Z,100472.31
2023-03-05T16:27:32.972Z,100466.91
2023-03-05T16:29:59.545Z,100471.88
2023-03-05T16:32:26.429Z,100467.38
2023-03-05T16:34:53.008Z,100470.66
2023-03-05T16:37:22.245Z,100469.44
2023-03-05T16:39:49.301Z,100463.97
2023-03-05T16:42:16.631Z,100457.91
2023-03-05T16:44:44.412Z,100458.94
2023-03-05T16:47:12.248Z,100467.31
2023-03-05T16:49:39.679Z,100472.22
2023-03-05T16:52:18.391Z,100472.41
2023-03-05T16:54:45.733Z,100471.56
2023-03-05T16:57:12.543Z,100469.44
2023-03-05T16:59:39.382Z,100478.44
2023-03-05T17:02:06.375Z,100480.25
2023-03-05T17:04:33.106Z,100475.50
2023-03-05T17:06:59.715Z,100474.28
2023-03-05T17:09:26.330Z,100468.97
2023-03-05T17:11:54.015Z,100467.66
2023-03-05T17:14:20.889Z,100466.47
2023-03-05T17:16:47.653Z,100462.66
2023-03-05T17:19:14.741Z,100463.09
2023-03-05T17:21:42.547Z,100468.44
2023-03-05T17:24:10.102Z,100467.00
2023-03-05T17:26:36.764Z,100463.22
2023-03-05T17:29:05.200Z,100460.97
2023-03-05T17:31:32.232Z,100465.09
2023-03-05T17:33:58.918Z,100474.47
2023-03-05T17:36:25.829Z,100476.78
2023-03-05T17:38:53.542Z,100464.31
2023-03-05T17:41:20.885Z,100461.81
2023-03-05T17:43:47.633Z,100456.88
2023-03-05T17:46:15.526Z,100465.63
2023-03-05T17:48:42.273Z,100468.50
2023-03-05T17:51:12.174Z,100470.53
2023-03-05T17:53:40.166Z,100466.47
2023-03-05T17:56:09.251Z,100470.66
2023-03-05T17:58:36.351Z,100465.25
2023-03-05T18:01:04.619Z,100461.91
2023-03-05T18:03:31.409Z,100460.25
2023-03-05T18:05:58.060Z,100453.34
2023-03-05T18:08:24.626Z,100460.97
2023-03-05T18:10:51.236Z,100451.78
2023-03-05T18:13:17.788Z,100448.72
2023-03-05T18:15:47.774Z,100460.03
2023-03-05T18:18:16.218Z,100458.84
2023-03-05T18:20:43.268Z,100464.25
2023-03-05T18:23:10.716Z,100464.25
2023-03-05T18:25:37.579Z,100446.56
2023-03-05T18:28:08.427Z,100444.72
2023-03-05T18:30:35.430Z,100434.94
2023-03-05T18:33:02.121Z,100445.88
2023-03-05T18:35:29.299Z,100444.72
2023-03-05T18:37:56.771Z,100432.72
2023-03-05T18:40:25.626Z,100441.00
2023-03-05T18:42:52.521Z,100440.44
2023-03-05T18:45:21.418Z,100433.19
2023-03-05T18:47:49.103Z,100444.16
2023-03-05T18:50:18.754Z,100442.47
2023-03-05T18:52:46.112Z,100438.13
2023-03-05T18:55:16.303Z,100438.75
2023-03-05T18:57:42.955Z,100440.63
2023-03-05T19:00:14.436Z,100438.94
2023-03-05T19:02:41.404Z,100436.06
2023-03-05T19:05:08.626Z,100438.75
2023-03-05T19:07:37.002Z,100430.88
2023-03-05T19:10:09.896Z,100440.03
2023-03-05T19:12:45.431Z,100437.34
2023-03-05T19:15:13.706Z,100436.31
2023-03-05T19:17:40.766Z,100439.03
2023-03-05T19:20:10.487Z,100429.53
2023-03-05T19:22:39.374Z,100421.25
2023-03-05T19:25:06.588Z,100430.38
2023-03-05T19:27:33.151Z,100418.56
2023-03-05T19:30:00.319Z,100417.25
2023-03-05T19:32:27.236Z,100426.22
2023-03-05T19:34:58.091Z,100424.88
2023-03-05T19:37:25.115Z,100412.63
2023-03-05T19:39:51.734Z,100417.84
2023-03-05T19:42:18.513Z,100416.16
2023-03-05T19:44:45.260Z,100414.50
2023-03-05T19:47:11.965Z,100410.50
2023-03-05T19:49:38.613Z,100410.13
2023-03-05T19:52:06.258Z,100410.31
2023-03-05T19:54:33.304Z,100413.84
2023-03-05T19:57:00.246Z,100409.50
2023-03-05T19:59:26.951Z,100403.41
2023-03-05T20:01:53.602Z,100411.34
2023-03-05T20:04:22.822Z,100419.88
2023-03-05T20:06:49.554Z,100418.22
2023-03-05T20:09:16.572Z,100405.75
2023-03-05T20:11:43.486Z,100405.97
2023-03-05T20:14:10.456Z,100400.81
2023-03-05T20:16:38.044Z,100398.31
2023-03-05T20:19:06.403Z,100397.66
2023-03-05T20:21:36.184Z,100401.25
2023-03-05T20:24:07.860Z,100400.44
2023-03-05T20:26:37.795Z,100397.09
2023-03-05T20:29:05.086Z,100395.41
2023-03-05T20:31:37.028Z,100394.59
2023-03-05T20:34:09.412Z,100389.66
2023-03-05T20:36:36.109Z,100388.81
2023-03-05T20:39:04.162Z,100389.00
2023-03-05T20:41:31.782Z,100385.91
2023-03-05T20:43:58.359Z,100385.47
2023-03-05T20:46:31.000Z,100381.19
2023-03-05T20:48:59.981Z,100380.34
2023-03-05T20:51:48.475Z,100384.06
2023-03-05T20:54:15.149Z,100380.34
2023-03-05T20:56:41.922Z,100375.81
2023-03-05T20:59:09.112Z,100365.19
2023-03-05T21:01:37.736Z,100367.88
2023-03-05T21:04:04.816Z,100365.56
2023-03-05T21:06:32.524Z,100364.72
2023-03-05T21:09:00.106Z,100354.78
2023-03-05T21:11:27.553Z,100352.47
2023-03-05T21:13:54.238Z,100356.19
2023-03-05T21:16:26.242Z,100354.97
2023-03-05T21:18:53.901Z,100347.06
2023-03-05T21:21:20.466Z,100346.06
2023-03-05T21:23:47.577Z,100346.50
2023-03-05T21:26:15.162Z,100344.38
2023-03-05T21:28:42.507Z,100347.31
2023-03-05T21:31:14.217Z,100336.94
2023-03-05T21:33:42.136Z,100335.47
2023-03-05T21:36:08.918Z,100336.28
2023-03-05T21:38:35.730Z,100322.16
2023-03-05T21:41:03.822Z,100328.19
2023-03-05T21:43:31.592Z,100316.97
2023-03-05T21:46:00.722Z,100316.59
2023-03-05T21:48:27.440Z,100315.75
2023-03-05T21:50:55.187Z,100311.38
2023-03-05T21:53:21.905Z,100305.50
2023-03-05T21:56:22.068Z,100309.22
2023-03-05T21:58:48.914Z,100306.50
2023-03-05T22:01:18.353Z,100299.13
2023-03-05T22:03:46.124Z,100288.66
2023-03-05T22:06:14.666Z,100298.25
2023-03-05T22:08:41.394Z,100287.94
2023-03-05T22:11:15.386Z,100285.06
2023-03-05T22:13:42.983Z,100293.78
2023-03-05T22:16:10.493Z,100285.50
2023-03-05T22:18:37.412Z,100285.88
2023-03-05T22:21:05.389Z,100281.13
2023-03-05T22:23:36.881Z,100270.16
2023-03-05T22:26:07.643Z,100274.72
2023-03-05T22:28:36.207Z,100266.81
2023-03-05T22:31:02.863Z,100264.97
2023-03-05T22:33:30.010Z,100257.06
2023-03-05T22:35:56.938Z,100259.75
2023-03-05T22:38:25.241Z,100257.91
2023-03-05T22:40:51.914Z,100251.66
2023-03-05T22:43:19.803Z,100251.03
2023-03-05T22:45:46.418Z,100247.09
2023-03-05T22:48:13.324Z,100243.78
2023-03-05T22:50:41.484Z,100244.59
2023-03-05T22:53:08.659Z,100240.25
2023-03-05T22:55:38.625Z,100234.25
2023-03-05T22:58:05.162Z,100236.53
2023-03-05T23:00:31.978Z,100231.75
2023-03-05T23:02:58.545Z,100227.59
2023-03-05T23:05:25.088Z,100219.50
2023-03-05T23:07:51.643Z,100213.69
2023-03-05T23:10:26.431Z,100212.16
2023-03-05T23:12:54.901Z,100204.91
2023-03-05T23:15:34.991Z,100204.06
2023-03-05T23:18:01.918Z,100211.16
2023-03-05T23:20:34.607Z,100207.63
2023-03-05T23:23:02.166Z,100204.06
2023-03-05T23:25:31.254Z,100206.75
2023-03-05T23:27:59.050Z,100193.66
2023-03-05T23:30:34.557Z,100187.25
2023-03-05T23:33:04.111Z,100190.56
2023-03-05T23:35:38.689Z,100189.09
2023-03-05T23:38:08.213Z,100188.06
2023-03-05T23:40:37.954Z,100191.59
2023-03-05T23:43:04.753Z,100195.81
2023-03-05T23:45:31.744Z,100194.13
2023-03-05T23:47:58.542Z,100191.28
2023-03-05T23:50:31.089Z,100187.72
2023-03-05T23:53:01.662Z,100179.25
2023-03-05T23:55:39.958Z,100186.03
2023-03-05T23:58:07.164Z,100173.88
